This is the latest recevied weather packets stored in our database for station/object K7TUS-6. If no packets are shown the sender has not sent any weather packets the latest 1 day(s).
| Time | Temp. | Humidity | Pressure | Rain* | Wind** | Luminosity | Snow |
|---|---|---|---|---|---|---|---|
| 1778009704 | 5.56° C | 47% | 976.2 hPa | - | 2.68 m/s, 143° | - | - |
| 1778009404 | 5.56° C | 50% | 976.7 hPa | - | 2.68 m/s, 55° | - | - |
| 1778009103 | 5.56° C | 50% | 976.4 hPa | - | 3.58 m/s, 63° | - | - |
| 1778008803 | 4.44° C | 41% | 976.6 hPa | - | 4.02 m/s, 2° | - | - |
| 1778008508 | 5° C | 43% | 977.1 hPa | - | 8.05 m/s, 90° | - | - |
| 1778008207 | 5.56° C | 49% | 977.1 hPa | - | 1.79 m/s, 179° | - | - |
| 1778007606 | 6.11° C | 49% | 977.1 hPa | - | 2.24 m/s, 13° | - | - |
| 1778007306 | 6.11° C | 43% | 977 hPa | - | 4.47 m/s, 23° | - | - |
| 1778007005 | 5.56° C | 44% | 977.1 hPa | - | 3.58 m/s, 9° | - | - |
| 1778006704 | 5.56° C | 50% | 976.7 hPa | - | 2.24 m/s, 20° | - | - |
| 1778006404 | 5° C | 48% | 976.8 hPa | - | 5.36 m/s, 9° | - | - |
| 1778006109 | 5° C | 48% | 976.8 hPa | - | 5.36 m/s, 9° | - | - |
| 1778005808 | 5° C | 48% | 976.8 hPa | - | 4.47 m/s, 9° | - | - |
| 1778005206 | 5° C | 45% | 978.1 hPa | - | 7.15 m/s, 352° | - | - |
| 1778004906 | 5° C | 49% | 977.9 hPa | - | 3.13 m/s, 88° | - | - |
| 1778004305 | 5° C | 46% | 976.9 hPa | - | 4.02 m/s, 354° | - | - |
| 1778004004 | 5° C | 46% | 978.5 hPa | - | 4.02 m/s, 4° | - | - |
| 1778003703 | 5° C | 47% | 976.8 hPa | - | 5.81 m/s, 7° | - | - |
| 1778003403 | 4.44° C | 47% | 977.1 hPa | - | 3.58 m/s, 168° | - | - |
| 1778003108 | 5° C | 44% | 977.5 hPa | - | 4.02 m/s, 358° | - | - |
| 1778002808 | 5° C | 43% | 976.3 hPa | - | 4.92 m/s, 94° | - | - |
| 1778002207 | 5° C | 44% | 976.5 hPa | - | 4.02 m/s, 4° | - | - |
| 1778001906 | 5.56° C | 44% | 977 hPa | - | 4.92 m/s, 9° | - | - |
| 1778001606 | 5° C | 45% | 976.6 hPa | - | 4.02 m/s, 8° | - | - |
| 1778001305 | 5.56° C | 43% | 976.7 hPa | - | 5.36 m/s, 8° | - | - |
* Rain since midnight (hover to see other rain measurements)
** Current wind speed in m/s (hover to see current wind gust speed)